VAM | Vabird-VBD

Virtual Vabird! Aerolínea Virtual de habla hispana, desde 2011




 INFORMACIÓN METAR y TAF
METAR FOR LEGE
ADDS - METARS form results

(2105 UTC 12 June 2021)
Data provider http://aviationweather.gov/metar/data/
 
METAR text: LEGE 122100Z 00000KT CAVOK 22/14 Q1020
Conditions at: LEGE (GERONA/COSTA BRA, ES) observed 2100 UTC 12 June 2021
Temperature: 22.0°C (72°F)
Dewpoint: 14.0°C (57°F) [RH = 60%]
Pressure (altimeter): 30.12 inches Hg (1020.0 mb)
Winds: calm
Visibility: 6 or more miles (10+ km)
Ceiling: ceiling and visibility are OK
Clouds: unknown
Weather: no significant weather observed at this time

METAR text: LEGE 122030Z 03003KT CAVOK 23/14 Q1020
Conditions at: LEGE (GERONA/COSTA BRA, ES) observed 2030 UTC 12 June 2021
Temperature: 23.0°C (73°F)
Dewpoint: 14.0°C (57°F) [RH = 57%]
Pressure (altimeter): 30.12 inches Hg (1020.0 mb)
Winds: from the NNE (30 degrees) at 3 MPH (3 knots; 1.5 m/s)
Visibility: 6 or more miles (10+ km)
Ceiling: ceiling and visibility are OK
Clouds: unknown
Weather: no significant weather observed at this time

Forecast for: LEGE (GERONA/COSTA BRA, ES)
Text: TAF LEGE 121700Z 1218/1318 20010KT CAVOK TX34/1313Z TN20/1306Z
Forecast period: 1800 to 1900 UTC 12 June 2021
Forecast type: FROM: standard forecast or significant change
Winds: from the SSW (200 degrees) at 12 MPH (10 knots; 5.1 m/s)
Visibility: 6 or more miles (10+ km)
Ceiling: unknown
Clouds: missing
Weather: no significant weather forecast for this period
Text: BECMG 1219/1221 VRB03KT
Forecast period: 1900 UTC 12 June 2021 to 1100 UTC 13 June 2021
Forecast type: BECOMING: Conditions expected to become as follows by 2100 UTC 12 June 2021
Winds: variable direction winds at 3 MPH (3 knots; 1.5 m/s)
Visibility: 6 or more miles (10+ km)
Ceiling: unknown
Clouds: missing
Weather: no significant weather forecast for this period
Text: BECMG 1311/1313 18015KT
Forecast period: 1100 to 1800 UTC 13 June 2021
Forecast type: BECOMING: Conditions expected to become as follows by 1300 UTC 13 June 2021
Winds: from the S (180 degrees) at 17 MPH (15 knots; 7.7 m/s)
Visibility: 6 or more miles (10+ km)
Ceiling: unknown
Clouds: missing
Weather: no significant weather forecast for this period
Text: TEMPO 1312/1316 18015G25KT
Forecast period: 1200 to 1600 UTC 13 June 2021
Forecast type: TEMPORARY: The following changes expected for less than half the time period
Winds: from the S (180 degrees) at 17 MPH (15 knots; 7.7 m/s)
gusting to 29 MPH (25 knots; 12.9 m/s)
Visibility: missing
Ceiling: unknown
Clouds: missing
Weather: no significant weather forecast for this period

 MAPA DE AEROPUERTO

 INFORMACIÓN DE PISTA